Time;durP1;ratioP1;P1;durP2;ratioP2;P2;SDS_P1;SDS_P2;PMS_P1;PMS_P2;Temp;Humidity;BMP_temperature;BMP_pressure;BME280_temperature;BME280_humidity;BME280_pressure;Samples;Min_cycle;Max_cycle;Signal;HPM_P1;HPM_P2
2022/10/25 00:00:10;;;;;;;8.93;1.92;;;;;;;14.73;92.80;101177.31;5031251;28;20045;-47
2022/10/25 00:02:35;;;;;;;8.50;1.80;;;;;;;14.71;92.93;101174.69;5030623;28;20043;-49
2022/10/25 00:05:02;;;;;;;6.65;1.80;;;;;;;14.70;93.30;101187.63;5032411;28;20412;-47
2022/10/25 00:07:27;;;;;;;7.22;1.95;;;;;;;14.70;93.61;101185.03;5030392;28;20075;-48
2022/10/25 00:09:53;;;;;;;8.98;2.20;;;;;;;14.70;93.78;101188.50;5028798;28;20041;-49
2022/10/25 00:12:18;;;;;;;7.22;1.80;;;;;;;14.73;93.49;101182.47;5031909;28;20436;-48
2022/10/25 00:14:43;;;;;;;8.45;1.98;;;;;;;14.74;93.19;101185.13;5030046;28;20548;-48
2022/10/25 00:17:09;;;;;;;11.50;1.85;;;;;;;14.73;93.38;101188.53;5027724;28;20034;-48
2022/10/25 00:19:35;;;;;;;7.57;1.80;;;;;;;14.70;93.65;101200.56;5036532;28;20481;-48
2022/10/25 00:22:00;;;;;;;10.05;2.08;;;;;;;14.69;93.59;101202.28;5026256;28;20454;-46
2022/10/25 00:24:25;;;;;;;11.45;1.85;;;;;;;14.74;93.12;101199.75;5028803;28;20037;-47
2022/10/25 00:26:51;;;;;;;9.77;1.83;;;;;;;14.72;93.26;101201.44;5030295;28;20038;-47
2022/10/25 00:29:17;;;;;;;10.18;2.13;;;;;;;14.73;93.34;101205.78;5030297;28;20079;-46
2022/10/25 00:31:42;;;;;;;17.48;2.15;;;;;;;14.68;93.33;101202.22;5030893;28;20397;-49
2022/10/25 00:34:08;;;;;;;9.13;1.85;;;;;;;14.70;93.67;101201.44;5030736;28;20063;-48
2022/10/25 00:36:33;;;;;;;10.68;2.00;;;;;;;14.75;93.42;101211.88;5033200;28;20148;-48
2022/10/25 00:38:59;;;;;;;8.00;2.28;;;;;;;14.71;93.56;101212.66;5028112;28;20069;-47
2022/10/25 00:41:30;;;;;;;14.15;2.03;;;;;;;14.73;93.75;101206.66;5029587;28;20029;-48
2022/10/25 00:44:33;;;;;;;8.52;1.67;;;;;;;14.80;93.07;101211.91;5031840;28;20068;-48
2022/10/25 00:46:58;;;;;;;10.48;1.85;;;;;;;14.69;93.82;101215.22;5045284;28;20037;-48
2022/10/25 00:49:24;;;;;;;9.98;2.05;;;;;;;14.72;94.05;101209.22;5047700;28;20047;-46
2022/10/25 00:52:01;;;;;;;9.25;1.70;;;;;;;14.74;94.08;101208.41;5030234;28;20037;-49
2022/10/25 00:54:31;;;;;;;12.02;2.45;;;;;;;14.74;94.47;101217.88;5031529;28;20029;-48
2022/10/25 00:57:03;;;;;;;7.60;1.88;;;;;;;14.75;94.25;101217.03;5030465;28;20032;-49
2022/10/25 00:59:29;;;;;;;9.60;2.00;;;;;;;14.72;94.20;101210.09;5030262;28;20033;-48
2022/10/25 01:01:55;;;;;;;11.13;1.83;;;;;;;14.74;94.33;101215.28;5032578;28;20034;-46
2022/10/25 01:04:24;;;;;;;13.07;2.20;;;;;;;14.73;94.32;101206.66;5028539;28;20516;-47
2022/10/25 01:06:51;;;;;;;7.78;1.50;;;;;;;14.72;94.48;101210.09;5033666;28;20024;-50
2022/10/25 01:09:20;;;;;;;9.40;2.00;;;;;;;14.73;94.51;101208.38;5033630;28;20044;-47
2022/10/25 01:11:45;;;;;;;10.25;2.00;;;;;;;14.76;94.45;101213.59;5033196;28;20025;-47
2022/10/25 01:14:14;;;;;;;9.18;1.75;;;;;;;14.77;94.97;101215.34;5031075;28;20033;-48
2022/10/25 01:17:17;;;;;;;10.68;1.85;;;;;;;14.84;93.98;101216.31;5033182;28;22002;-49
2022/10/25 01:20:00;;;;;;;11.32;2.10;;;;;;;14.81;94.08;101221.47;5032907;28;20029;-48
2022/10/25 01:22:35;;;;;;;8.10;1.73;;;;;;;14.78;94.85;101223.97;5027393;28;20029;-48
2022/10/25 01:25:39;;;;;;;13.40;3.30;;;;;;;14.79;94.57;101224.00;5030256;28;20032;-48
2022/10/25 01:28:19;;;;;;;11.93;2.00;;;;;;;14.81;94.30;101224.03;5030319;28;20045;-46
2022/10/25 01:31:06;;;;;;;12.25;2.20;;;;;;;14.82;94.22;101236.13;5024375;28;20045;-48
2022/10/25 01:33:49;;;;;;;8.93;1.80;;;;;;;14.73;94.18;101221.31;5028794;28;20096;-51
2022/10/25 01:36:31;;;;;;;10.85;2.00;;;;;;;14.78;94.06;101223.97;5028348;28;20069;-46
2022/10/25 01:39:09;;;;;;;11.57;1.80;;;;;;;14.74;94.16;101241.16;5027596;28;20029;-47
2022/10/25 01:41:42;;;;;;;12.10;2.00;;;;;;;14.74;94.23;101238.56;5025362;28;20471;-48
2022/10/25 01:44:37;;;;;;;10.90;2.08;;;;;;;14.77;94.09;101237.78;5027024;28;20727;-49
2022/10/25 01:47:24;;;;;;;10.10;1.73;;;;;;;14.73;94.27;101242.00;5028405;28;20452;-46
2022/10/25 01:49:58;;;;;;;10.02;1.70;;;;;;;14.73;94.26;101245.47;5030245;28;20548;-48
2022/10/25 01:52:24;;;;;;;11.05;1.67;;;;;;;14.68;94.23;101239.38;5031792;28;20546;-46
2022/10/25 01:54:50;;;;;;;13.95;1.90;;;;;;;14.70;94.30;101241.97;5024982;28;20029;-49
2022/10/25 01:57:30;;;;;;;10.95;1.52;;;;;;;14.69;94.20;101245.41;5044354;28;20028;-48
2022/10/25 02:00:06;;;;;;;10.77;1.80;;;;;;;14.72;94.14;101237.69;5025900;28;20029;-49
2022/10/25 02:02:45;;;;;;;11.10;1.70;;;;;;;14.68;94.67;101248.81;5030046;28;20499;-48
2022/10/25 02:05:48;;;;;;;9.18;1.33;;;;;;;14.71;94.34;101248.88;5029620;28;20097;-48
2022/10/25 02:08:41;;;;;;;8.13;1.90;;;;;;;14.74;94.04;101247.25;5027847;28;20061;-47
2022/10/25 02:11:22;;;;;;;10.63;1.75;;;;;;;14.72;94.26;101258.41;5029632;28;20033;-46
2022/10/25 02:14:12;;;;;;;12.27;2.17;;;;;;;14.69;94.37;101251.47;5030392;28;20029;-47
2022/10/25 02:16:48;;;;;;;12.38;2.03;;;;;;;14.68;94.42;101249.72;5030325;28;20036;-48
2022/10/25 02:19:19;;;;;;;15.20;1.92;;;;;;;14.66;94.28;101253.97;5024586;28;20044;-47
2022/10/25 02:21:47;;;;;;;10.48;1.75;;;;;;;14.64;94.09;101245.34;5024922;28;20030;-47
2022/10/25 02:24:18;;;;;;;14.88;1.75;;;;;;;14.65;94.21;101266.91;5032579;28;20024;-50
2022/10/25 02:26:46;;;;;;;10.52;1.95;;;;;;;14.63;94.06;101258.25;5025467;28;20031;-49
2022/10/25 02:29:13;;;;;;;10.35;1.67;;;;;;;14.60;94.05;101259.06;5028936;28;20401;-50
2022/10/25 02:31:39;;;;;;;8.63;1.52;;;;;;;14.62;93.83;101264.25;5029862;28;20497;-46
2022/10/25 02:34:04;;;;;;;9.63;1.85;;;;;;;14.60;93.64;101268.53;5025807;28;20032;-48
2022/10/25 02:36:30;;;;;;;8.00;1.40;;;;;;;14.60;94.01;101268.53;5029106;28;20437;-46
2022/10/25 02:38:57;;;;;;;6.68;1.40;;;;;;;14.61;93.92;101262.50;5026251;28;20029;-48
2022/10/25 02:41:22;;;;;;;13.43;1.98;;;;;;;14.60;93.74;101265.94;5024370;28;20033;-48
2022/10/25 02:43:48;;;;;;;6.93;1.60;;;;;;;14.59;93.86;101264.22;5025675;28;20034;-46
2022/10/25 02:46:17;;;;;;;11.73;2.00;;;;;;;14.58;93.86;101272.81;5029557;28;20032;-49
2022/10/25 02:48:43;;;;;;;11.32;1.65;;;;;;;14.58;93.40;101265.06;5024916;28;20029;-47
2022/10/25 02:51:10;;;;;;;10.52;1.70;;;;;;;14.57;93.68;101271.09;5022759;28;20103;-47
2022/10/25 02:53:36;;;;;;;11.40;1.80;;;;;;;14.52;93.59;101271.00;5029863;28;20029;-48
2022/10/25 02:56:11;;;;;;;8.77;1.65;;;;;;;14.55;93.77;101277.91;5033431;28;20090;-49
2022/10/25 02:58:38;;;;;;;9.18;2.00;;;;;;;14.49;93.82;101276.97;5028466;28;20021;-49
2022/10/25 03:01:05;;;;;;;7.00;1.67;;;;;;;14.49;93.84;101274.38;5029358;28;20041;-46
2022/10/25 03:03:30;;;;;;;8.43;1.50;;;;;;;14.46;93.75;101276.91;5026593;28;20047;-47
2022/10/25 03:05:56;;;;;;;9.55;1.77;;;;;;;14.48;93.53;101274.34;5027308;28;20094;-46
2022/10/25 03:08:21;;;;;;;6.43;1.60;;;;;;;14.48;93.70;101274.34;5028748;28;20389;-49
2022/10/25 03:10:47;;;;;;;8.25;1.95;;;;;;;14.44;93.86;101277.72;5029766;28;20033;-47
2022/10/25 03:13:13;;;;;;;10.52;1.80;;;;;;;14.43;93.70;101271.63;5032392;28;20026;-48
2022/10/25 03:15:38;;;;;;;9.07;2.35;;;;;;;14.45;93.57;101282.03;5026446;28;20040;-46
2022/10/25 03:18:04;;;;;;;10.82;1.90;;;;;;;14.43;93.64;101278.53;5026312;28;20037;-47
2022/10/25 03:20:29;;;;;;;6.72;1.80;;;;;;;14.41;93.57;101285.41;5023258;28;20386;-47
2022/10/25 03:22:54;;;;;;;13.43;2.30;;;;;;;14.38;93.83;101291.41;5028757;28;20389;-47
2022/10/25 03:25:20;;;;;;;9.98;1.92;;;;;;;14.40;93.59;101296.59;5034258;28;20025;-47
2022/10/25 03:27:45;;;;;;;8.35;1.83;;;;;;;14.38;93.51;101296.59;5031583;28;20063;-47
2022/10/25 03:30:14;;;;;;;8.20;1.83;;;;;;;14.40;93.73;101306.94;5032353;28;20047;-48
2022/10/25 03:32:39;;;;;;;10.73;1.77;;;;;;;14.37;93.59;101292.22;5033997;28;20470;-47
2022/10/25 03:35:05;;;;;;;7.28;1.70;;;;;;;14.36;93.60;101302.53;5033215;28;20072;-46
2022/10/25 03:37:31;;;;;;;12.30;2.00;;;;;;;14.34;93.55;101304.25;5030496;28;20552;-48
2022/10/25 03:39:57;;;;;;;7.00;1.65;;;;;;;14.31;93.60;101305.03;5030275;28;20025;-46
2022/10/25 03:42:22;;;;;;;6.72;1.73;;;;;;;14.26;93.78;101314.44;5029684;28;20029;-49
2022/10/25 03:44:48;;;;;;;7.65;2.05;;;;;;;14.26;93.81;101316.13;5032581;28;20037;-48
2022/10/25 03:47:13;;;;;;;6.03;1.50;;;;;;;14.28;93.83;101315.34;5034007;28;20029;-49
2022/10/25 03:49:39;;;;;;;7.47;1.70;;;;;;;14.26;93.63;101316.13;5030945;28;20481;-47
2022/10/25 03:52:07;;;;;;;12.00;1.67;;;;;;;14.23;93.88;101317.81;5032178;28;20029;-48
2022/10/25 03:54:33;;;;;;;7.57;1.45;;;;;;;14.27;93.56;101317.91;5040176;28;20108;-50
2022/10/25 03:56:59;;;;;;;7.15;1.63;;;;;;;14.21;93.74;101329.00;5035697;28;20029;-47
2022/10/25 03:59:25;;;;;;;8.05;1.60;;;;;;;14.20;93.80;101320.38;5030381;28;20034;-47
2022/10/25 04:01:50;;;;;;;9.15;1.88;;;;;;;14.21;93.74;101334.16;5032307;28;20414;-50
2022/10/25 04:04:15;;;;;;;6.78;1.52;;;;;;;14.21;93.76;101337.63;5029386;28;20556;-47
2022/10/25 04:06:41;;;;;;;7.78;1.70;;;;;;;14.20;93.88;101337.59;5033546;28;20492;-48
2022/10/25 04:09:06;;;;;;;12.00;2.03;;;;;;;14.16;93.80;101331.47;5029643;28;20035;-47
2022/10/25 04:11:32;;;;;;;8.38;1.50;;;;;;;14.17;93.72;101329.75;5041718;28;20037;-46
2022/10/25 04:13:57;;;;;;;5.38;1.30;;;;;;;14.15;93.74;101323.69;5030342;28;20029;-48
2022/10/25 04:16:24;;;;;;;8.98;1.90;;;;;;;14.15;93.77;101329.75;5028600;28;20021;-49
2022/10/25 04:18:52;;;;;;;6.28;1.52;;;;;;;14.13;93.84;101331.41;5028410;28;20064;-46
2022/10/25 04:21:20;;;;;;;8.27;2.28;;;;;;;14.11;93.90;101342.56;5029879;28;20478;-46
2022/10/25 04:23:45;;;;;;;9.15;1.58;;;;;;;14.10;94.06;101352.03;5035199;28;20115;-48
2022/10/25 04:26:13;;;;;;;8.48;1.23;;;;;;;14.12;94.07;101344.31;5035942;28;20045;-48
2022/10/25 04:28:38;;;;;;;6.80;1.55;;;;;;;14.08;93.89;101343.38;5032909;28;20405;-46
2022/10/25 04:31:04;;;;;;;6.70;1.48;;;;;;;14.07;94.08;101349.38;5032375;28;20028;-45
2022/10/25 04:33:29;;;;;;;7.95;1.70;;;;;;;14.06;93.84;101350.22;5032844;28;20112;-48
2022/10/25 04:35:55;;;;;;;8.35;1.67;;;;;;;14.05;94.14;101353.66;5030339;28;20033;-46
2022/10/25 04:38:22;;;;;;;6.60;1.70;;;;;;;14.05;94.06;101356.22;5029710;28;20101;-49
2022/10/25 04:40:55;;;;;;;10.02;1.73;;;;;;;14.05;94.43;101351.06;5032679;28;20397;-48
2022/10/25 04:43:21;;;;;;;7.50;1.77;;;;;;;14.01;94.20;101356.13;5025461;28;20032;-49
2022/10/25 04:45:46;;;;;;;7.88;1.55;;;;;;;13.99;94.22;101358.69;5034276;28;20116;-46
2022/10/25 04:48:12;;;;;;;8.13;1.70;;;;;;;13.99;93.98;101357.81;5028004;28;20165;-49
2022/10/25 04:50:37;;;;;;;7.18;1.50;;;;;;;14.00;93.98;101354.38;5039710;28;20033;-47
2022/10/25 04:53:04;;;;;;;9.15;1.60;;;;;;;14.05;93.95;101358.81;5031409;28;20144;-49
2022/10/25 04:55:30;;;;;;;8.10;1.83;;;;;;;14.00;94.03;101365.59;5047031;28;20052;-49
2022/10/25 04:57:56;;;;;;;16.27;1.80;;;;;;;13.97;94.15;101359.50;5034971;28;20071;-48
2022/10/25 05:00:22;;;;;;;7.35;1.52;;;;;;;13.94;94.32;101363.75;5034000;28;20486;-48
2022/10/25 05:02:50;;;;;;;7.90;2.30;;;;;;;13.90;94.41;101355.91;5028228;28;20569;-47
2022/10/25 05:05:16;;;;;;;6.15;1.55;;;;;;;13.93;94.15;101363.72;5025436;28;20136;-47
2022/10/25 05:07:41;;;;;;;7.97;1.70;;;;;;;13.95;94.00;101368.09;5027228;28;20548;-47
2022/10/25 05:10:07;;;;;;;8.23;1.90;;;;;;;13.95;93.97;101367.19;5031431;28;20028;-48
2022/10/25 05:12:32;;;;;;;6.55;1.73;;;;;;;13.89;94.25;101367.06;5035199;28;20108;-52
2022/10/25 05:14:57;;;;;;;8.02;2.00;;;;;;;13.90;94.24;101371.44;5032703;28;20107;-46
2022/10/25 05:17:23;;;;;;;7.88;1.88;;;;;;;13.87;94.41;101379.97;5029154;28;20040;-46
2022/10/25 05:19:48;;;;;;;9.05;2.53;;;;;;;13.88;94.29;101378.25;5030289;28;20033;-47
2022/10/25 05:22:13;;;;;;;10.75;2.15;;;;;;;13.88;94.30;101386.00;5031503;28;20042;-48
2022/10/25 05:24:39;;;;;;;7.57;1.85;;;;;;;13.90;94.18;101390.38;5038187;28;20133;-47
2022/10/25 05:27:04;;;;;;;6.55;1.90;;;;;;;13.90;94.44;101389.53;5049236;28;20032;-47
2022/10/25 05:29:29;;;;;;;5.80;2.00;;;;;;;13.85;94.38;101384.25;5033020;28;20040;-49
2022/10/25 05:31:55;;;;;;;8.65;2.10;;;;;;;13.90;94.08;101394.69;5026727;28;20040;-48
2022/10/25 05:34:20;;;;;;;9.75;1.92;;;;;;;13.86;94.29;101398.03;5031420;28;20025;-47
2022/10/25 05:36:46;;;;;;;8.70;2.05;;;;;;;13.89;94.24;101393.81;5029179;28;20075;-49
2022/10/25 05:39:11;;;;;;;9.63;2.38;;;;;;;13.85;94.20;101394.56;5029108;28;20039;-47
2022/10/25 05:41:36;;;;;;;6.57;1.80;;;;;;;13.80;94.21;101396.19;5033385;28;20037;-47
2022/10/25 05:44:02;;;;;;;8.65;1.95;;;;;;;13.84;94.73;101398.00;5029706;28;20398;-48
2022/10/25 05:46:28;;;;;;;9.70;1.90;;;;;;;13.77;94.55;101398.72;5026134;28;20029;-45
2022/10/25 05:48:53;;;;;;;9.25;1.90;;;;;;;13.78;94.71;101405.63;5033457;28;20116;-48
2022/10/25 05:51:27;;;;;;;9.43;1.65;;;;;;;13.82;94.68;101412.59;5028727;28;20033;-47
2022/10/25 05:53:57;;;;;;;8.68;1.90;;;;;;;13.77;94.57;101410.72;5029209;28;20429;-46
2022/10/25 05:56:25;;;;;;;8.82;1.70;;;;;;;13.75;94.88;101415.88;5044811;28;20103;-46
2022/10/25 05:58:51;;;;;;;9.32;1.65;;;;;;;13.77;94.82;101414.22;5035654;28;20769;-48
2022/10/25 06:01:20;;;;;;;9.13;1.80;;;;;;;13.79;94.64;101416.81;5034251;28;20036;-48
2022/10/25 06:03:50;;;;;;;6.07;1.90;;;;;;;13.80;94.84;101422.03;5027227;28;20055;-48
2022/10/25 06:06:15;;;;;;;5.65;1.92;;;;;;;13.79;94.57;101428.03;5032043;28;20064;-50
2022/10/25 06:08:41;;;;;;;12.48;2.15;;;;;;;13.80;94.46;101432.38;5029541;28;20490;-45
2022/10/25 06:11:11;;;;;;;9.93;1.88;;;;;;;13.78;94.50;101428.88;5029713;28;20039;-46
2022/10/25 06:13:37;;;;;;;7.55;1.95;;;;;;;13.78;94.89;101430.59;5029177;28;20042;-46
2022/10/25 06:16:08;;;;;;;9.20;2.20;;;;;;;13.80;94.96;101436.66;5024995;28;20037;-51
2022/10/25 06:18:34;;;;;;;7.95;1.92;;;;;;;13.74;94.97;101439.09;5033629;28;20038;-46
2022/10/25 06:21:04;;;;;;;10.25;2.45;;;;;;;13.75;94.79;101446.00;5032055;28;20400;-49
2022/10/25 06:23:30;;;;;;;11.23;2.67;;;;;;;13.71;95.11;101442.50;5028290;28;20079;-49
2022/10/25 06:26:00;;;;;;;10.85;2.85;;;;;;;13.77;94.90;101453.00;5032807;28;20021;-47
2022/10/25 06:28:27;;;;;;;10.13;2.80;;;;;;;13.76;94.74;101461.56;5040388;28;20041;-48
2022/10/25 06:30:52;;;;;;;7.53;3.10;;;;;;;13.73;94.86;101458.91;5029841;28;20501;-49
2022/10/25 06:33:18;;;;;;;11.95;3.70;;;;;;;13.77;94.40;101470.16;5026114;28;20044;-50
2022/10/25 06:35:43;;;;;;;9.95;3.75;;;;;;;13.74;94.67;101465.81;5023747;28;20487;-47
2022/10/25 06:38:08;;;;;;;11.77;3.75;;;;;;;13.76;94.40;101465.84;5024777;28;20111;-48
2022/10/25 06:40:34;;;;;;;9.98;3.88;;;;;;;13.76;94.47;101471.00;5033857;28;20453;-46
2022/10/25 06:43:00;;;;;;;8.65;3.92;;;;;;;13.76;94.67;101476.19;5030781;28;20063;-48
2022/10/25 06:45:25;;;;;;;9.80;3.90;;;;;;;13.75;94.77;101477.91;5027421;28;20038;-47
2022/10/25 06:47:50;;;;;;;10.90;3.80;;;;;;;13.72;95.21;101474.38;5028296;28;20075;-51
2022/10/25 06:50:16;;;;;;;9.43;4.10;;;;;;;13.74;95.07;101472.69;5027535;28;20477;-46
2022/10/25 06:52:42;;;;;;;11.27;5.47;;;;;;;13.75;94.95;101475.31;5029505;28;20095;-47
2022/10/25 06:55:07;;;;;;;15.00;6.13;;;;;;;13.76;95.08;101477.06;5026760;28;20034;-46
2022/10/25 06:57:32;;;;;;;14.23;5.97;;;;;;;13.72;95.06;101474.38;5026487;28;20482;-49
2022/10/25 06:59:59;;;;;;;11.30;5.57;;;;;;;13.75;95.13;101483.06;5031575;28;20468;-46
2022/10/25 07:02:25;;;;;;;14.57;4.78;;;;;;;13.74;94.94;101485.63;5039921;28;20393;-49
2022/10/25 07:04:50;;;;;;;14.80;4.88;;;;;;;13.76;95.06;101494.28;5034778;28;20045;-46
2022/10/25 07:07:16;;;;;;;8.70;4.57;;;;;;;13.78;95.12;101490.03;5024350;28;20079;-49
2022/10/25 07:09:41;;;;;;;10.13;4.38;;;;;;;13.77;94.93;101491.75;5039833;28;20137;-46
2022/10/25 07:12:06;;;;;;;12.90;5.10;;;;;;;13.80;95.00;101503.88;5050200;28;20029;-50
2022/10/25 07:14:32;;;;;;;12.75;4.57;;;;;;;13.77;95.26;101507.25;5035862;28;20117;-47
2022/10/25 07:16:57;;;;;;;13.48;4.90;;;;;;;13.83;95.18;101511.69;5034507;28;20042;-47
2022/10/25 07:19:23;;;;;;;10.52;4.90;;;;;;;13.81;95.02;101510.78;5037800;28;20033;-48
2022/10/25 07:21:49;;;;;;;12.43;4.47;;;;;;;13.79;95.31;101508.16;5047111;28;20394;-46
2022/10/25 07:24:14;;;;;;;9.73;4.80;;;;;;;13.84;95.26;101523.81;5034505;28;20110;-46
2022/10/25 07:26:40;;;;;;;13.20;5.43;;;;;;;13.82;95.33;101515.97;5046631;28;20037;-47
2022/10/25 07:29:06;;;;;;;9.93;4.88;;;;;;;13.85;95.50;101525.53;5037936;28;20055;-49
2022/10/25 07:31:35;;;;;;;12.60;5.28;;;;;;;13.88;95.77;101520.44;5042488;28;20762;-48
2022/10/25 07:34:02;;;;;;;15.60;5.90;;;;;;;13.88;95.91;101526.47;5028340;28;20372;-47
2022/10/25 07:36:28;;;;;;;12.90;6.13;;;;;;;13.90;95.71;101529.13;5042862;28;20036;-47
2022/10/25 07:38:55;;;;;;;16.55;6.65;;;;;;;13.90;95.48;101532.59;5036154;28;20032;-47
2022/10/25 07:41:20;;;;;;;14.63;6.50;;;;;;;13.92;95.94;101522.28;5039737;28;20067;-48
2022/10/25 07:43:45;;;;;;;11.05;6.03;;;;;;;13.94;95.71;101529.22;5039684;28;20061;-49
2022/10/25 07:46:11;;;;;;;14.65;6.97;;;;;;;13.96;95.87;101534.44;5042010;28;20096;-49
2022/10/25 07:48:36;;;;;;;13.63;6.75;;;;;;;13.95;96.00;101531.00;5038723;28;20082;-46
2022/10/25 07:51:20;;;;;;;14.18;7.28;;;;;;;14.02;95.87;101526.84;5036764;28;20055;-50
2022/10/25 07:53:46;;;;;;;19.10;7.32;;;;;;;13.98;96.25;101531.88;5040151;28;20084;-48
2022/10/25 07:56:13;;;;;;;17.20;7.90;;;;;;;14.01;96.04;101537.13;5039474;28;22834;-50
2022/10/25 07:58:39;;;;;;;16.60;8.20;;;;;;;14.01;96.13;101538.00;5037051;28;20029;-50
2022/10/25 08:01:07;;;;;;;17.83;7.47;;;;;;;14.08;96.08;101546.81;5020064;28;20036;-51
2022/10/25 08:03:32;;;;;;;17.00;7.45;;;;;;;14.08;96.02;101541.63;5036898;28;20055;-46
2022/10/25 08:05:58;;;;;;;15.43;7.53;;;;;;;14.13;95.67;101545.19;5038543;28;20589;-50
2022/10/25 08:08:24;;;;;;;14.02;7.85;;;;;;;14.14;95.48;101553.00;5031478;28;20083;-51
2022/10/25 08:10:51;;;;;;;14.13;8.13;;;;;;;14.16;95.15;101548.72;5034583;28;20033;-49
2022/10/25 08:13:17;;;;;;;17.50;8.07;;;;;;;14.19;95.46;101558.25;5041064;28;20027;-49
2022/10/25 08:15:53;;;;;;;16.55;8.00;;;;;;;14.24;95.09;101556.66;5040609;28;20048;-47
2022/10/25 08:18:19;;;;;;;17.52;8.80;;;;;;;14.26;95.12;101560.19;5032683;28;20037;-48
2022/10/25 08:20:44;;;;;;;15.45;8.45;;;;;;;14.28;95.49;101553.31;5032375;28;20038;-49
2022/10/25 08:23:10;;;;;;;17.35;8.98;;;;;;;14.29;95.14;101556.78;5043837;28;20041;-48
2022/10/25 08:25:35;;;;;;;17.50;9.00;;;;;;;14.32;95.05;101559.44;5036518;28;20056;-51
2022/10/25 08:28:01;;;;;;;15.73;8.77;;;;;;;14.37;95.03;101557.84;5034189;28;20039;-48
2022/10/25 08:30:26;;;;;;;15.55;8.20;;;;;;;14.47;94.77;101552.06;5042938;28;20075;-47
2022/10/25 08:32:51;;;;;;;14.27;8.65;;;;;;;14.48;94.29;101559.88;5032234;28;20029;-48
2022/10/25 08:35:17;;;;;;;14.70;8.55;;;;;;;14.53;93.84;101556.53;5031671;28;20486;-47
2022/10/25 08:37:42;;;;;;;15.57;8.02;;;;;;;14.56;94.08;101559.16;5031278;28;20432;-48
2022/10/25 08:40:20;;;;;;;19.40;7.70;;;;;;;14.58;93.85;101560.97;5033917;28;20541;-49
2022/10/25 08:43:15;;;;;;;17.65;7.90;;;;;;;14.66;93.93;101561.13;5028812;28;20113;-48
2022/10/25 08:45:51;;;;;;;16.52;7.78;;;;;;;14.78;93.71;101557.94;5027692;28;20067;-47
2022/10/25 08:48:21;;;;;;;15.00;7.85;;;;;;;14.84;93.30;101569.31;5029586;28;20026;-47
2022/10/25 08:50:52;;;;;;;14.90;7.07;;;;;;;14.89;93.12;101567.69;5024560;28;20029;-47
2022/10/25 08:53:24;;;;;;;15.27;6.72;;;;;;;14.92;93.03;101574.63;5032344;28;20547;-47
2022/10/25 08:55:50;;;;;;;14.70;6.25;;;;;;;14.93;92.36;101573.81;5033631;28;20037;-49
2022/10/25 08:58:39;;;;;;;14.32;6.70;;;;;;;14.97;92.71;101576.47;5028612;28;20559;-46
2022/10/25 09:01:13;;;;;;;12.10;6.53;;;;;;;15.00;92.62;101575.69;5038044;28;20622;-46
2022/10/25 09:03:40;;;;;;;15.15;6.57;;;;;;;15.10;92.83;101585.38;5039278;28;20410;-48
2022/10/25 09:06:21;;;;;;;15.80;5.88;;;;;;;15.17;93.15;101587.28;5037048;28;20033;-48
2022/10/25 09:08:58;;;;;;;14.52;6.47;;;;;;;15.15;92.08;101583.78;5043246;28;20138;-46
2022/10/25 09:11:46;;;;;;;12.02;6.05;;;;;;;15.40;91.93;101587.72;5041267;28;20486;-47
2022/10/25 09:14:27;;;;;;;15.13;6.30;;;;;;;15.54;91.08;101586.31;5028427;28;20029;-49
2022/10/25 09:17:00;;;;;;;12.50;5.38;;;;;;;15.60;89.92;101597.63;5031784;28;20021;-45
2022/10/25 09:19:53;;;;;;;12.50;5.50;;;;;;;15.65;89.28;101593.41;5021647;28;20462;-47
2022/10/25 09:22:28;;;;;;;11.60;5.82;;;;;;;15.64;88.76;101597.72;5041141;28;20041;-47
2022/10/25 09:25:05;;;;;;;12.00;5.20;;;;;;;15.67;88.88;101607.31;5025786;28;20375;-48
2022/10/25 09:27:30;;;;;;;13.13;5.65;;;;;;;15.67;87.76;101615.09;5023353;28;20024;-48
2022/10/25 09:30:00;;;;;;;11.95;5.30;;;;;;;15.65;87.93;101615.06;5034443;28;20414;-45
2022/10/25 09:32:42;;;;;;;11.80;5.07;;;;;;;15.65;88.42;101621.94;5026577;28;20084;-45
2022/10/25 09:35:42;;;;;;;11.50;4.55;;;;;;;15.62;88.35;101622.75;5028233;28;20827;-46
2022/10/25 09:38:17;;;;;;;12.32;4.60;;;;;;;15.58;88.82;101626.09;5033892;28;20041;-45
2022/10/25 09:40:52;;;;;;;9.60;3.80;;;;;;;15.52;88.91;101621.66;5037195;28;20444;-46
2022/10/25 09:43:25;;;;;;;12.60;4.13;;;;;;;15.59;89.10;101621.78;5026382;28;20037;-47
2022/10/25 09:45:55;;;;;;;11.77;3.60;;;;;;;15.66;89.08;101618.53;5037621;28;20033;-45
2022/10/25 09:48:53;;;;;;;8.48;3.30;;;;;;;15.76;89.25;101615.25;5041864;28;20447;-47
2022/10/25 09:51:29;;;;;;;10.10;2.75;;;;;;;15.81;89.56;101621.41;5028653;28;20130;-48
2022/10/25 09:53:55;;;;;;;13.90;3.22;;;;;;;15.81;89.01;101624.84;5040481;28;20033;-47
2022/10/25 09:56:21;;;;;;;10.73;2.70;;;;;;;15.81;88.04;101626.56;5030173;28;20034;-43
2022/10/25 09:58:46;;;;;;;9.80;3.05;;;;;;;15.80;88.73;101623.13;5027873;28;20105;-46
2022/10/25 10:01:16;;;;;;;8.70;3.30;;;;;;;15.85;88.49;101631.00;5023938;28;20044;-47
2022/10/25 10:03:41;;;;;;;10.95;3.17;;;;;;;15.84;87.75;101631.84;5030189;28;20037;-45
2022/10/25 10:06:19;;;;;;;10.52;3.50;;;;;;;15.88;88.68;101630.16;5025939;28;20553;-45
2022/10/25 10:09:12;;;;;;;7.93;2.60;;;;;;;15.91;88.64;101630.22;5028437;28;20037;-45
2022/10/25 10:11:38;;;;;;;8.80;2.83;;;;;;;15.84;88.05;101639.63;5026094;28;20052;-47
2022/10/25 10:14:20;;;;;;;9.32;3.03;;;;;;;15.87;88.62;101636.19;5029780;28;20029;-48
2022/10/25 10:16:49;;;;;;;9.52;2.80;;;;;;;15.79;88.58;101638.66;5027507;28;20029;-48
2022/10/25 10:19:19;;;;;;;9.73;2.80;;;;;;;15.77;88.22;101640.31;5024658;28;20106;-47
2022/10/25 10:21:49;;;;;;;13.02;2.80;;;;;;;15.76;88.96;101641.16;5025520;28;20394;-48
2022/10/25 10:24:36;;;;;;;11.23;2.80;;;;;;;15.78;89.14;101652.47;5025761;28;20466;-49
2022/10/25 10:27:23;;;;;;;12.30;2.78;;;;;;;15.74;88.82;101645.47;5029433;28;20670;-50
2022/10/25 10:30:20;;;;;;;9.95;2.53;;;;;;;15.74;89.09;101653.25;5026652;28;20033;-49
2022/10/25 10:32:46;;;;;;;7.95;2.88;;;;;;;15.66;88.46;101650.50;5026770;28;20049;-50
2022/10/25 10:35:28;;;;;;;9.00;2.50;;;;;;;15.70;88.93;101657.47;5029160;28;20087;-51
2022/10/25 10:38:13;;;;;;;10.32;3.03;;;;;;;15.72;89.36;101652.34;5027329;28;20052;-49
2022/10/25 10:40:38;;;;;;;13.52;3.03;;;;;;;15.67;89.40;101654.84;5028440;28;20024;-50
2022/10/25 10:43:33;;;;;;;9.93;2.90;;;;;;;15.75;89.35;101655.84;5027157;28;20044;-50
2022/10/25 10:46:10;;;;;;;8.27;2.90;;;;;;;15.73;89.98;101656.69;5023457;28;20571;-48
2022/10/25 10:48:39;;;;;;;9.38;3.00;;;;;;;15.72;90.18;101660.13;5029711;28;20029;-52
2022/10/25 10:51:05;;;;;;;11.10;2.75;;;;;;;15.72;89.85;101666.19;5030350;28;20045;-50
2022/10/25 10:53:31;;;;;;;12.65;2.70;;;;;;;15.77;88.92;101671.44;5029364;28;20037;-47
2022/10/25 10:56:05;;;;;;;12.88;2.50;;;;;;;15.86;89.21;101666.44;5024316;28;20045;-47
2022/10/25 10:58:33;;;;;;;6.68;2.20;;;;;;;15.89;89.14;101666.50;5030683;28;20508;-51
2022/10/25 11:01:05;;;;;;;9.10;2.28;;;;;;;15.93;87.74;101663.13;5028768;28;20030;-50
2022/10/25 11:03:40;;;;;;;8.88;2.03;;;;;;;15.98;87.12;101663.22;5030309;28;20481;-47
2022/10/25 11:06:09;;;;;;;7.60;1.98;;;;;;;15.95;86.52;101666.59;5027674;28;20545;-50
2022/10/25 11:08:35;;;;;;;;;;;;;;;16.08;87.06;101657.34;5028329;28;20474;-50
2022/10/25 11:11:13;;;;;;;7.65;1.85;;;;;;;16.06;86.51;101665.09;5029344;28;20018;-47
2022/10/25 11:13:39;;;;;;;9.95;1.60;;;;;;;16.13;86.13;101654.81;5028550;28;20445;-49
2022/10/25 11:16:35;;;;;;;6.80;1.73;;;;;;;16.20;86.04;101665.34;5027496;28;20038;-48
2022/10/25 11:19:09;;;;;;;8.05;1.90;;;;;;;16.19;84.76;101663.59;5026988;28;20029;-48
2022/10/25 11:21:52;;;;;;;10.18;1.85;;;;;;;16.32;85.54;101664.69;5042441;28;20075;-48
2022/10/25 11:24:28;;;;;;;10.35;1.98;;;;;;;16.47;84.83;101670.13;5024155;28;20029;-49
2022/10/25 11:27:07;;;;;;;7.35;1.58;;;;;;;16.57;84.11;101663.38;5025970;28;20390;-50
2022/10/25 11:29:50;;;;;;;;;;;;;;;16.69;84.77;101663.59;5027671;28;20053;-47
2022/10/25 11:32:34;;;;;;;9.02;2.10;;;;;;;16.85;84.21;101664.69;5028032;28;19913;-48
2022/10/25 11:35:26;;;;;;;11.10;1.80;;;;;;;17.05;83.27;101655.50;5029659;28;20020;-50